sensor_id;sensor_type;location;lat;lon;timestamp;temperature;humidity
77985;DHT22;67177;47.240;-1.546;2024-02-15T00:00:48;14.10;77.00
77985;DHT22;67177;47.240;-1.546;2024-02-15T00:03:13;14.10;77.10
77985;DHT22;67177;47.240;-1.546;2024-02-15T00:05:39;14.00;77.10
77985;DHT22;67177;47.240;-1.546;2024-02-15T00:08:05;14.00;77.10
77985;DHT22;67177;47.240;-1.546;2024-02-15T00:10:31;14.10;77.10
77985;DHT22;67177;47.240;-1.546;2024-02-15T00:12:58;14.00;77.10
77985;DHT22;67177;47.240;-1.546;2024-02-15T00:15:24;14.00;77.10
77985;DHT22;67177;47.240;-1.546;2024-02-15T00:17:49;14.00;77.10
77985;DHT22;67177;47.240;-1.546;2024-02-15T00:20:15;14.00;77.10
77985;DHT22;67177;47.240;-1.546;2024-02-15T00:22:43;14.00;77.10
77985;DHT22;67177;47.240;-1.546;2024-02-15T00:25:09;14.00;77.10
77985;DHT22;67177;47.240;-1.546;2024-02-15T00:27:36;14.00;77.20
77985;DHT22;67177;47.240;-1.546;2024-02-15T00:30:03;14.00;77.20
77985;DHT22;67177;47.240;-1.546;2024-02-15T00:32:28;14.00;77.10
77985;DHT22;67177;47.240;-1.546;2024-02-15T00:34:55;14.00;77.10
77985;DHT22;67177;47.240;-1.546;2024-02-15T00:37:21;14.00;77.20
77985;DHT22;67177;47.240;-1.546;2024-02-15T00:39:46;14.00;77.10
77985;DHT22;67177;47.240;-1.546;2024-02-15T00:42:12;14.00;77.20
77985;DHT22;67177;47.240;-1.546;2024-02-15T00:44:39;14.00;77.20
77985;DHT22;67177;47.240;-1.546;2024-02-15T00:47:05;14.00;77.30
77985;DHT22;67177;47.240;-1.546;2024-02-15T00:49:30;14.00;77.20
77985;DHT22;67177;47.240;-1.546;2024-02-15T00:51:57;14.00;77.20
77985;DHT22;67177;47.240;-1.546;2024-02-15T00:54:23;14.00;77.20
77985;DHT22;67177;47.240;-1.546;2024-02-15T00:56:48;14.00;77.20
77985;DHT22;67177;47.240;-1.546;2024-02-15T00:59:14;14.00;77.20
77985;DHT22;67177;47.240;-1.546;2024-02-15T01:01:40;14.00;77.20
77985;DHT22;67177;47.240;-1.546;2024-02-15T01:04:06;14.00;77.20
77985;DHT22;67177;47.240;-1.546;2024-02-15T01:06:31;13.90;77.30
77985;DHT22;67177;47.240;-1.546;2024-02-15T01:08:59;13.90;77.30
77985;DHT22;67177;47.240;-1.546;2024-02-15T01:11:27;13.90;77.40
77985;DHT22;67177;47.240;-1.546;2024-02-15T01:13:54;13.90;77.40
77985;DHT22;67177;47.240;-1.546;2024-02-15T01:16:19;13.90;77.40
77985;DHT22;67177;47.240;-1.546;2024-02-15T01:18:47;13.90;77.60
77985;DHT22;67177;47.240;-1.546;2024-02-15T01:21:13;13.80;77.50
77985;DHT22;67177;47.240;-1.546;2024-02-15T01:23:38;13.80;77.60
77985;DHT22;67177;47.240;-1.546;2024-02-15T01:26:05;13.80;77.70
77985;DHT22;67177;47.240;-1.546;2024-02-15T01:28:30;13.80;77.70
77985;DHT22;67177;47.240;-1.546;2024-02-15T01:30:56;13.80;77.70
77985;DHT22;67177;47.240;-1.546;2024-02-15T01:33:22;13.80;77.80
77985;DHT22;67177;47.240;-1.546;2024-02-15T01:35:47;13.80;77.80
77985;DHT22;67177;47.240;-1.546;2024-02-15T01:38:14;13.80;77.80
77985;DHT22;67177;47.240;-1.546;2024-02-15T01:40:40;13.80;77.80
77985;DHT22;67177;47.240;-1.546;2024-02-15T01:43:05;13.70;77.90
77985;DHT22;67177;47.240;-1.546;2024-02-15T01:45:31;13.70;77.90
77985;DHT22;67177;47.240;-1.546;2024-02-15T01:47:57;13.70;77.90
77985;DHT22;67177;47.240;-1.546;2024-02-15T01:50:24;13.70;77.90
77985;DHT22;67177;47.240;-1.546;2024-02-15T01:52:53;13.70;77.90
77985;DHT22;67177;47.240;-1.546;2024-02-15T01:55:21;13.60;78.10
77985;DHT22;67177;47.240;-1.546;2024-02-15T01:57:48;13.60;78.10
77985;DHT22;67177;47.240;-1.546;2024-02-15T02:00:23;13.60;78.10
77985;DHT22;67177;47.240;-1.546;2024-02-15T02:02:50;13.60;78.20
77985;DHT22;67177;47.240;-1.546;2024-02-15T02:05:17;13.50;78.20
77985;DHT22;67177;47.240;-1.546;2024-02-15T02:07:42;13.50;78.30
77985;DHT22;67177;47.240;-1.546;2024-02-15T02:10:08;13.50;78.40
77985;DHT22;67177;47.240;-1.546;2024-02-15T02:12:36;13.50;78.40
77985;DHT22;67177;47.240;-1.546;2024-02-15T02:15:06;13.50;78.40
77985;DHT22;67177;47.240;-1.546;2024-02-15T02:17:32;13.50;78.40
77985;DHT22;67177;47.240;-1.546;2024-02-15T02:19:58;13.40;78.40
77985;DHT22;67177;47.240;-1.546;2024-02-15T02:22:24;13.40;78.40
77985;DHT22;67177;47.240;-1.546;2024-02-15T02:25:08;13.40;78.40
77985;DHT22;67177;47.240;-1.546;2024-02-15T02:27:35;13.40;78.60
77985;DHT22;67177;47.240;-1.546;2024-02-15T02:30:12;13.40;78.60
77985;DHT22;67177;47.240;-1.546;2024-02-15T02:32:45;13.40;78.60
77985;DHT22;67177;47.240;-1.546;2024-02-15T02:35:13;13.30;78.60
77985;DHT22;67177;47.240;-1.546;2024-02-15T02:37:41;13.30;78.60
77985;DHT22;67177;47.240;-1.546;2024-02-15T02:40:08;13.30;78.60
77985;DHT22;67177;47.240;-1.546;2024-02-15T02:42:54;13.30;78.60
77985;DHT22;67177;47.240;-1.546;2024-02-15T02:45:25;13.30;78.50
77985;DHT22;67177;47.240;-1.546;2024-02-15T02:47:51;13.30;78.50
77985;DHT22;67177;47.240;-1.546;2024-02-15T02:50:17;13.30;78.40
77985;DHT22;67177;47.240;-1.546;2024-02-15T02:52:43;13.30;78.40
77985;DHT22;67177;47.240;-1.546;2024-02-15T02:55:09;13.30;78.40
77985;DHT22;67177;47.240;-1.546;2024-02-15T02:57:36;13.30;78.40
77985;DHT22;67177;47.240;-1.546;2024-02-15T03:00:07;13.30;78.40
77985;DHT22;67177;47.240;-1.546;2024-02-15T03:02:36;13.30;78.20
77985;DHT22;67177;47.240;-1.546;2024-02-15T03:05:03;13.30;78.20
77985;DHT22;67177;47.240;-1.546;2024-02-15T03:07:32;13.20;78.20
77985;DHT22;67177;47.240;-1.546;2024-02-15T03:09:59;13.20;78.20
77985;DHT22;67177;47.240;-1.546;2024-02-15T03:12:24;13.20;78.20
77985;DHT22;67177;47.240;-1.546;2024-02-15T03:14:52;13.20;78.20
77985;DHT22;67177;47.240;-1.546;2024-02-15T03:17:18;13.20;78.20
77985;DHT22;67177;47.240;-1.546;2024-02-15T03:19:43;13.10;78.20
77985;DHT22;67177;47.240;-1.546;2024-02-15T03:22:09;13.10;78.30
77985;DHT22;67177;47.240;-1.546;2024-02-15T03:24:36;13.10;78.40
77985;DHT22;67177;47.240;-1.546;2024-02-15T03:27:02;13.10;78.40
77985;DHT22;67177;47.240;-1.546;2024-02-15T03:29:28;13.00;78.40
77985;DHT22;67177;47.240;-1.546;2024-02-15T03:31:54;13.00;78.40
77985;DHT22;67177;47.240;-1.546;2024-02-15T03:34:21;13.00;78.60
77985;DHT22;67177;47.240;-1.546;2024-02-15T03:36:47;13.00;78.60
77985;DHT22;67177;47.240;-1.546;2024-02-15T03:39:19;13.00;78.70
77985;DHT22;67177;47.240;-1.546;2024-02-15T03:41:45;12.90;78.60
77985;DHT22;67177;47.240;-1.546;2024-02-15T03:44:13;12.90;78.70
77985;DHT22;67177;47.240;-1.546;2024-02-15T03:46:39;12.90;78.80
77985;DHT22;67177;47.240;-1.546;2024-02-15T03:49:05;12.90;78.80
77985;DHT22;67177;47.240;-1.546;2024-02-15T03:51:31;12.90;78.80
77985;DHT22;67177;47.240;-1.546;2024-02-15T03:53:57;12.90;78.80
77985;DHT22;67177;47.240;-1.546;2024-02-15T03:56:23;12.90;78.80
77985;DHT22;67177;47.240;-1.546;2024-02-15T03:58:49;12.90;78.80
77985;DHT22;67177;47.240;-1.546;2024-02-15T04:01:16;12.90;78.80
77985;DHT22;67177;47.240;-1.546;2024-02-15T04:03:41;12.90;78.80
77985;DHT22;67177;47.240;-1.546;2024-02-15T04:06:07;12.90;78.70
77985;DHT22;67177;47.240;-1.546;2024-02-15T04:08:33;12.90;78.70
77985;DHT22;67177;47.240;-1.546;2024-02-15T04:10:59;12.90;78.70
77985;DHT22;67177;47.240;-1.546;2024-02-15T04:13:24;12.90;78.60
77985;DHT22;67177;47.240;-1.546;2024-02-15T04:15:50;12.90;78.60
77985;DHT22;67177;47.240;-1.546;2024-02-15T04:18:18;12.90;78.60
77985;DHT22;67177;47.240;-1.546;2024-02-15T04:20:44;12.90;78.40
77985;DHT22;67177;47.240;-1.546;2024-02-15T04:23:12;12.90;78.30
77985;DHT22;67177;47.240;-1.546;2024-02-15T04:25:37;12.90;78.10
77985;DHT22;67177;47.240;-1.546;2024-02-15T04:28:03;13.00;78.10
77985;DHT22;67177;47.240;-1.546;2024-02-15T04:30:32;13.00;78.10
77985;DHT22;67177;47.240;-1.546;2024-02-15T04:33:04;12.90;78.00
77985;DHT22;67177;47.240;-1.546;2024-02-15T04:35:30;12.90;78.00
77985;DHT22;67177;47.240;-1.546;2024-02-15T04:37:56;12.90;78.00
77985;DHT22;67177;47.240;-1.546;2024-02-15T04:40:23;12.90;77.90
77985;DHT22;67177;47.240;-1.546;2024-02-15T04:42:48;12.90;77.90
77985;DHT22;67177;47.240;-1.546;2024-02-15T04:45:14;12.80;77.90
77985;DHT22;67177;47.240;-1.546;2024-02-15T04:47:41;12.80;77.90
77985;DHT22;67177;47.240;-1.546;2024-02-15T04:50:07;12.80;77.90
77985;DHT22;67177;47.240;-1.546;2024-02-15T04:52:34;12.80;78.00
77985;DHT22;67177;47.240;-1.546;2024-02-15T04:55:00;12.80;77.90
77985;DHT22;67177;47.240;-1.546;2024-02-15T04:57:26;12.70;78.00
77985;DHT22;67177;47.240;-1.546;2024-02-15T04:59:56;12.70;78.10
77985;DHT22;67177;47.240;-1.546;2024-02-15T05:02:23;12.70;78.00
77985;DHT22;67177;47.240;-1.546;2024-02-15T05:04:50;12.70;78.00
77985;DHT22;67177;47.240;-1.546;2024-02-15T05:07:21;12.70;78.00
77985;DHT22;67177;47.240;-1.546;2024-02-15T05:09:48;12.70;78.00
77985;DHT22;67177;47.240;-1.546;2024-02-15T05:12:24;12.70;77.90
77985;DHT22;67177;47.240;-1.546;2024-02-15T05:14:50;12.70;77.80
77985;DHT22;67177;47.240;-1.546;2024-02-15T05:17:16;12.70;77.80
77985;DHT22;67177;47.240;-1.546;2024-02-15T05:19:42;12.60;77.90
77985;DHT22;67177;47.240;-1.546;2024-02-15T05:22:08;12.70;77.80
77985;DHT22;67177;47.240;-1.546;2024-02-15T05:24:33;12.60;77.80
77985;DHT22;67177;47.240;-1.546;2024-02-15T05:26:59;12.60;77.80
77985;DHT22;67177;47.240;-1.546;2024-02-15T05:29:25;12.60;77.80
77985;DHT22;67177;47.240;-1.546;2024-02-15T05:31:51;12.60;77.80
77985;DHT22;67177;47.240;-1.546;2024-02-15T05:34:17;12.60;77.70
77985;DHT22;67177;47.240;-1.546;2024-02-15T05:36:43;12.60;77.70
77985;DHT22;67177;47.240;-1.546;2024-02-15T05:39:09;12.60;77.70
77985;DHT22;67177;47.240;-1.546;2024-02-15T05:41:36;12.60;77.60
77985;DHT22;67177;47.240;-1.546;2024-02-15T05:44:02;12.70;77.60
77985;DHT22;67177;47.240;-1.546;2024-02-15T05:46:32;12.70;77.60
77985;DHT22;67177;47.240;-1.546;2024-02-15T05:48:59;12.70;77.40
77985;DHT22;67177;47.240;-1.546;2024-02-15T05:51:25;12.70;77.40
77985;DHT22;67177;47.240;-1.546;2024-02-15T05:53:50;12.70;77.40
77985;DHT22;67177;47.240;-1.546;2024-02-15T05:56:17;12.70;77.30
77985;DHT22;67177;47.240;-1.546;2024-02-15T05:58:43;12.70;77.30
77985;DHT22;67177;47.240;-1.546;2024-02-15T06:01:08;12.80;77.10
77985;DHT22;67177;47.240;-1.546;2024-02-15T06:03:37;12.80;77.10
77985;DHT22;67177;47.240;-1.546;2024-02-15T06:06:05;12.80;77.10
77985;DHT22;67177;47.240;-1.546;2024-02-15T06:08:36;12.80;77.00
77985;DHT22;67177;47.240;-1.546;2024-02-15T06:11:03;12.80;76.90
77985;DHT22;67177;47.240;-1.546;2024-02-15T06:13:29;12.80;76.80
77985;DHT22;67177;47.240;-1.546;2024-02-15T06:15:55;12.80;76.70
77985;DHT22;67177;47.240;-1.546;2024-02-15T06:18:26;12.80;76.60
77985;DHT22;67177;47.240;-1.546;2024-02-15T06:20:57;12.90;76.60
77985;DHT22;67177;47.240;-1.546;2024-02-15T06:23:25;12.90;76.50
77985;DHT22;67177;47.240;-1.546;2024-02-15T06:25:53;12.90;76.30
77985;DHT22;67177;47.240;-1.546;2024-02-15T06:28:20;12.90;76.40
77985;DHT22;67177;47.240;-1.546;2024-02-15T06:31:05;12.90;76.30
77985;DHT22;67177;47.240;-1.546;2024-02-15T06:33:49;12.90;76.30
77985;DHT22;67177;47.240;-1.546;2024-02-15T06:36:33;12.90;76.10
77985;DHT22;67177;47.240;-1.546;2024-02-15T06:39:17;12.90;76.00
77985;DHT22;67177;47.240;-1.546;2024-02-15T06:42:02;12.90;76.00
77985;DHT22;67177;47.240;-1.546;2024-02-15T06:44:28;12.90;75.90
77985;DHT22;67177;47.240;-1.546;2024-02-15T06:46:53;12.90;75.90
77985;DHT22;67177;47.240;-1.546;2024-02-15T06:49:19;12.90;75.90
77985;DHT22;67177;47.240;-1.546;2024-02-15T06:51:48;12.90;75.80
77985;DHT22;67177;47.240;-1.546;2024-02-15T06:54:13;13.00;75.80
77985;DHT22;67177;47.240;-1.546;2024-02-15T06:56:39;13.00;75.70
77985;DHT22;67177;47.240;-1.546;2024-02-15T06:59:09;13.00;75.70
77985;DHT22;67177;47.240;-1.546;2024-02-15T07:01:35;13.00;75.70
77985;DHT22;67177;47.240;-1.546;2024-02-15T07:04:01;13.00;75.70
77985;DHT22;67177;47.240;-1.546;2024-02-15T07:06:28;13.00;75.70
77985;DHT22;67177;47.240;-1.546;2024-02-15T07:08:54;13.00;75.50
77985;DHT22;67177;47.240;-1.546;2024-02-15T07:11:22;13.00;75.40
77985;DHT22;67177;47.240;-1.546;2024-02-15T07:13:48;13.00;75.40
77985;DHT22;67177;47.240;-1.546;2024-02-15T07:16:13;13.00;75.30
77985;DHT22;67177;47.240;-1.546;2024-02-15T07:18:41;13.00;75.20
77985;DHT22;67177;47.240;-1.546;2024-02-15T07:21:07;13.00;75.20
77985;DHT22;67177;47.240;-1.546;2024-02-15T07:23:39;13.00;75.10
77985;DHT22;67177;47.240;-1.546;2024-02-15T07:26:06;13.10;75.00
77985;DHT22;67177;47.240;-1.546;2024-02-15T07:28:33;13.00;74.90
77985;DHT22;67177;47.240;-1.546;2024-02-15T07:30:59;13.10;74.90
77985;DHT22;67177;47.240;-1.546;2024-02-15T07:33:28;13.10;74.90
77985;DHT22;67177;47.240;-1.546;2024-02-15T07:35:55;13.10;74.80
77985;DHT22;67177;47.240;-1.546;2024-02-15T07:38:22;13.10;74.60
77985;DHT22;67177;47.240;-1.546;2024-02-15T07:40:51;13.10;74.60
77985;DHT22;67177;47.240;-1.546;2024-02-15T07:43:16;13.20;74.40
77985;DHT22;67177;47.240;-1.546;2024-02-15T07:45:42;13.20;74.30
77985;DHT22;67177;47.240;-1.546;2024-02-15T07:48:08;13.30;74.20
77985;DHT22;67177;47.240;-1.546;2024-02-15T07:50:34;13.30;74.10
77985;DHT22;67177;47.240;-1.546;2024-02-15T07:53:03;13.40;74.00
77985;DHT22;67177;47.240;-1.546;2024-02-15T07:55:28;13.40;73.90
77985;DHT22;67177;47.240;-1.546;2024-02-15T07:57:54;13.50;73.80
77985;DHT22;67177;47.240;-1.546;2024-02-15T08:00:21;13.50;73.60
77985;DHT22;67177;47.240;-1.546;2024-02-15T08:02:47;13.50;73.50
77985;DHT22;67177;47.240;-1.546;2024-02-15T08:05:13;13.60;73.40
77985;DHT22;67177;47.240;-1.546;2024-02-15T08:07:44;13.60;73.40
77985;DHT22;67177;47.240;-1.546;2024-02-15T08:10:11;13.60;73.10
77985;DHT22;67177;47.240;-1.546;2024-02-15T08:12:43;13.60;73.10
77985;DHT22;67177;47.240;-1.546;2024-02-15T08:15:10;13.70;73.00
77985;DHT22;67177;47.240;-1.546;2024-02-15T08:17:39;13.70;72.80
77985;DHT22;67177;47.240;-1.546;2024-02-15T08:20:07;13.70;72.60
77985;DHT22;67177;47.240;-1.546;2024-02-15T08:22:34;13.70;72.50
77985;DHT22;67177;47.240;-1.546;2024-02-15T08:25:00;13.70;72.50
77985;DHT22;67177;47.240;-1.546;2024-02-15T08:27:26;13.80;72.30
77985;DHT22;67177;47.240;-1.546;2024-02-15T08:29:52;13.90;72.20
77985;DHT22;67177;47.240;-1.546;2024-02-15T08:32:19;13.90;72.00
77985;DHT22;67177;47.240;-1.546;2024-02-15T08:34:45;13.90;72.00
77985;DHT22;67177;47.240;-1.546;2024-02-15T08:37:13;14.00;71.80
77985;DHT22;67177;47.240;-1.546;2024-02-15T08:39:39;14.00;71.60
77985;DHT22;67177;47.240;-1.546;2024-02-15T08:42:05;14.10;71.40
77985;DHT22;67177;47.240;-1.546;2024-02-15T08:44:30;14.10;71.40
77985;DHT22;67177;47.240;-1.546;2024-02-15T08:46:56;14.20;71.20
77985;DHT22;67177;47.240;-1.546;2024-02-15T08:49:21;14.30;71.20
77985;DHT22;67177;47.240;-1.546;2024-02-15T08:51:47;14.30;71.20
77985;DHT22;67177;47.240;-1.546;2024-02-15T08:54:13;14.20;71.10
77985;DHT22;67177;47.240;-1.546;2024-02-15T08:56:38;14.10;71.10
77985;DHT22;67177;47.240;-1.546;2024-02-15T08:59:04;14.10;71.20
77985;DHT22;67177;47.240;-1.546;2024-02-15T09:01:30;14.10;71.20
77985;DHT22;67177;47.240;-1.546;2024-02-15T09:03:56;14.10;71.10
77985;DHT22;67177;47.240;-1.546;2024-02-15T09:06:21;14.00;71.10
77985;DHT22;67177;47.240;-1.546;2024-02-15T09:08:48;14.00;71.00
77985;DHT22;67177;47.240;-1.546;2024-02-15T09:11:13;14.00;71.00
77985;DHT22;67177;47.240;-1.546;2024-02-15T09:13:39;14.00;70.90
77985;DHT22;67177;47.240;-1.546;2024-02-15T09:16:05;14.00;70.80
77985;DHT22;67177;47.240;-1.546;2024-02-15T09:18:31;14.10;70.70
77985;DHT22;67177;47.240;-1.546;2024-02-15T09:20:58;14.20;70.60
77985;DHT22;67177;47.240;-1.546;2024-02-15T09:23:25;14.30;70.50
77985;DHT22;67177;47.240;-1.546;2024-02-15T09:25:50;14.30;70.40
77985;DHT22;67177;47.240;-1.546;2024-02-15T09:28:19;14.30;70.40
77985;DHT22;67177;47.240;-1.546;2024-02-15T09:30:48;14.40;70.30
77985;DHT22;67177;47.240;-1.546;2024-02-15T09:33:14;14.40;70.20
77985;DHT22;67177;47.240;-1.546;2024-02-15T09:35:39;14.50;70.10
77985;DHT22;67177;47.240;-1.546;2024-02-15T09:38:05;14.50;70.00
77985;DHT22;67177;47.240;-1.546;2024-02-15T09:40:31;14.60;69.90
77985;DHT22;67177;47.240;-1.546;2024-02-15T09:42:59;14.70;69.90
77985;DHT22;67177;47.240;-1.546;2024-02-15T09:45:25;14.70;69.60
77985;DHT22;67177;47.240;-1.546;2024-02-15T09:47:51;14.70;69.70
77985;DHT22;67177;47.240;-1.546;2024-02-15T09:50:18;14.70;69.60
77985;DHT22;67177;47.240;-1.546;2024-02-15T09:55:11;15.10;69.20
77985;DHT22;67177;47.240;-1.546;2024-02-15T09:57:39;15.20;69.00
77985;DHT22;67177;47.240;-1.546;2024-02-15T10:00:05;15.40;68.80
77985;DHT22;67177;47.240;-1.546;2024-02-15T10:02:35;15.60;68.50
77985;DHT22;67177;47.240;-1.546;2024-02-15T10:05:02;15.60;68.20
77985;DHT22;67177;47.240;-1.546;2024-02-15T10:07:28;15.70;67.90
77985;DHT22;67177;47.240;-1.546;2024-02-15T10:09:54;15.80;67.60
77985;DHT22;67177;47.240;-1.546;2024-02-15T10:12:20;15.90;67.30
77985;DHT22;67177;47.240;-1.546;2024-02-15T10:14:51;16.00;67.40
77985;DHT22;67177;47.240;-1.546;2024-02-15T10:17:20;16.00;67.40
77985;DHT22;67177;47.240;-1.546;2024-02-15T10:20:03;16.00;67.20
77985;DHT22;67177;47.240;-1.546;2024-02-15T10:22:30;16.00;67.10
77985;DHT22;67177;47.240;-1.546;2024-02-15T10:25:14;15.90;67.00
77985;DHT22;67177;47.240;-1.546;2024-02-15T10:27:43;15.90;66.90
77985;DHT22;67177;47.240;-1.546;2024-02-15T10:30:18;15.80;67.10
77985;DHT22;67177;47.240;-1.546;2024-02-15T10:32:45;15.70;67.20
77985;DHT22;67177;47.240;-1.546;2024-02-15T10:35:19;15.60;67.40
77985;DHT22;67177;47.240;-1.546;2024-02-15T10:37:45;15.60;67.30
77985;DHT22;67177;47.240;-1.546;2024-02-15T10:40:11;15.60;67.50
77985;DHT22;67177;47.240;-1.546;2024-02-15T10:42:41;15.60;67.50
77985;DHT22;67177;47.240;-1.546;2024-02-15T10:45:08;15.70;67.40
77985;DHT22;67177;47.240;-1.546;2024-02-15T10:47:37;15.70;67.50
77985;DHT22;67177;47.240;-1.546;2024-02-15T10:50:04;15.70;67.20
77985;DHT22;67177;47.240;-1.546;2024-02-15T10:52:32;15.80;67.20
77985;DHT22;67177;47.240;-1.546;2024-02-15T10:55:05;15.90;67.20
77985;DHT22;67177;47.240;-1.546;2024-02-15T10:57:40;16.10;66.90
77985;DHT22;67177;47.240;-1.546;2024-02-15T11:00:11;16.30;66.70
77985;DHT22;67177;47.240;-1.546;2024-02-15T11:03:02;16.30;66.60
77985;DHT22;67177;47.240;-1.546;2024-02-15T11:05:32;16.40;66.60
77985;DHT22;67177;47.240;-1.546;2024-02-15T11:08:04;16.50;66.40
77985;DHT22;67177;47.240;-1.546;2024-02-15T11:10:30;16.60;66.40
77985;DHT22;67177;47.240;-1.546;2024-02-15T11:12:57;16.60;66.30
77985;DHT22;67177;47.240;-1.546;2024-02-15T11:15:45;16.60;66.30
77985;DHT22;67177;47.240;-1.546;2024-02-15T11:18:47;16.70;66.30
77985;DHT22;67177;47.240;-1.546;2024-02-15T11:21:55;16.80;65.80
77985;DHT22;67177;47.240;-1.546;2024-02-15T11:24:31;17.00;65.80
77985;DHT22;67177;47.240;-1.546;2024-02-15T11:27:06;17.20;65.50
77985;DHT22;67177;47.240;-1.546;2024-02-15T11:29:58;17.30;65.40
77985;DHT22;67177;47.240;-1.546;2024-02-15T11:32:36;17.40;65.00
77985;DHT22;67177;47.240;-1.546;2024-02-15T11:43:06;17.70;64.50
77985;DHT22;67177;47.240;-1.546;2024-02-15T11:45:32;17.70;64.30
77985;DHT22;67177;47.240;-1.546;2024-02-15T11:48:00;17.70;64.40
77985;DHT22;67177;47.240;-1.546;2024-02-15T11:50:27;17.60;64.50
77985;DHT22;67177;47.240;-1.546;2024-02-15T11:53:02;17.60;64.40
77985;DHT22;67177;47.240;-1.546;2024-02-15T11:55:35;17.60;64.40
77985;DHT22;67177;47.240;-1.546;2024-02-15T11:58:02;17.60;64.30
77985;DHT22;67177;47.240;-1.546;2024-02-15T12:00:42;17.60;64.00
77985;DHT22;67177;47.240;-1.546;2024-02-15T12:03:28;17.60;64.00
77985;DHT22;67177;47.240;-1.546;2024-02-15T12:06:12;17.60;64.00
77985;DHT22;67177;47.240;-1.546;2024-02-15T12:09:00;17.60;64.00
77985;DHT22;67177;47.240;-1.546;2024-02-15T12:11:44;17.60;64.00
77985;DHT22;67177;47.240;-1.546;2024-02-15T12:14:28;17.70;63.90
77985;DHT22;67177;47.240;-1.546;2024-02-15T12:17:13;17.70;63.70
77985;DHT22;67177;47.240;-1.546;2024-02-15T12:20:02;17.70;63.50
77985;DHT22;67177;47.240;-1.546;2024-02-15T12:22:44;17.80;63.30
77985;DHT22;67177;47.240;-1.546;2024-02-15T12:25:15;17.80;63.20
77985;DHT22;67177;47.240;-1.546;2024-02-15T12:27:45;17.80;63.10
77985;DHT22;67177;47.240;-1.546;2024-02-15T12:30:16;17.80;63.10
77985;DHT22;67177;47.240;-1.546;2024-02-15T12:32:45;17.70;63.10
77985;DHT22;67177;47.240;-1.546;2024-02-15T12:35:14;17.70;63.30
77985;DHT22;67177;47.240;-1.546;2024-02-15T12:40:35;17.60;63.50
77985;DHT22;67177;47.240;-1.546;2024-02-15T12:43:02;17.60;63.40
77985;DHT22;67177;47.240;-1.546;2024-02-15T12:45:31;17.60;63.40
77985;DHT22;67177;47.240;-1.546;2024-02-15T12:47:57;17.60;63.30
77985;DHT22;67177;47.240;-1.546;2024-02-15T12:50:27;17.60;63.20
77985;DHT22;67177;47.240;-1.546;2024-02-15T12:52:53;17.70;63.20
77985;DHT22;67177;47.240;-1.546;2024-02-15T12:55:24;17.70;63.10
77985;DHT22;67177;47.240;-1.546;2024-02-15T12:57:54;17.70;63.20
77985;DHT22;67177;47.240;-1.546;2024-02-15T13:00:26;17.80;63.00
77985;DHT22;67177;47.240;-1.546;2024-02-15T13:02:57;17.80;62.80
77985;DHT22;67177;47.240;-1.546;2024-02-15T13:05:26;17.80;62.90
77985;DHT22;67177;47.240;-1.546;2024-02-15T13:07:53;17.90;62.90
77985;DHT22;67177;47.240;-1.546;2024-02-15T13:10:23;17.90;62.90
77985;DHT22;67177;47.240;-1.546;2024-02-15T13:12:52;18.00;62.80
77985;DHT22;67177;47.240;-1.546;2024-02-15T13:15:18;18.00;62.70
77985;DHT22;67177;47.240;-1.546;2024-02-15T13:17:50;18.00;62.60
77985;DHT22;67177;47.240;-1.546;2024-02-15T13:20:23;18.00;62.60
77985;DHT22;67177;47.240;-1.546;2024-02-15T13:23:02;17.90;62.50
77985;DHT22;67177;47.240;-1.546;2024-02-15T13:25:34;17.90;62.40
77985;DHT22;67177;47.240;-1.546;2024-02-15T13:28:02;17.90;62.50
77985;DHT22;67177;47.240;-1.546;2024-02-15T13:30:28;17.80;62.50
77985;DHT22;67177;47.240;-1.546;2024-02-15T13:32:54;17.90;62.60
77985;DHT22;67177;47.240;-1.546;2024-02-15T13:35:20;17.90;62.50
77985;DHT22;67177;47.240;-1.546;2024-02-15T13:37:50;17.80;62.50
77985;DHT22;67177;47.240;-1.546;2024-02-15T13:40:18;17.80;62.60
77985;DHT22;67177;47.240;-1.546;2024-02-15T13:42:46;17.80;62.80
77985;DHT22;67177;47.240;-1.546;2024-02-15T13:45:20;17.70;62.90
77985;DHT22;67177;47.240;-1.546;2024-02-15T13:47:48;17.70;62.90
77985;DHT22;67177;47.240;-1.546;2024-02-15T13:50:14;17.60;62.90
77985;DHT22;67177;47.240;-1.546;2024-02-15T13:52:44;17.70;62.90
77985;DHT22;67177;47.240;-1.546;2024-02-15T13:55:14;17.70;62.90
77985;DHT22;67177;47.240;-1.546;2024-02-15T13:57:41;17.70;62.90
77985;DHT22;67177;47.240;-1.546;2024-02-15T14:00:09;17.70;63.00
77985;DHT22;67177;47.240;-1.546;2024-02-15T14:02:42;17.80;63.00
77985;DHT22;67177;47.240;-1.546;2024-02-15T14:05:09;17.80;63.10
77985;DHT22;67177;47.240;-1.546;2024-02-15T14:07:39;17.80;63.10
77985;DHT22;67177;47.240;-1.546;2024-02-15T14:10:06;17.80;63.00
77985;DHT22;67177;47.240;-1.546;2024-02-15T14:12:34;17.80;63.00
77985;DHT22;67177;47.240;-1.546;2024-02-15T14:15:01;17.70;63.10
77985;DHT22;67177;47.240;-1.546;2024-02-15T14:17:26;17.70;63.20
77985;DHT22;67177;47.240;-1.546;2024-02-15T14:19:53;17.70;63.30
77985;DHT22;67177;47.240;-1.546;2024-02-15T14:22:19;17.60;63.30
77985;DHT22;67177;47.240;-1.546;2024-02-15T14:24:49;17.60;63.30
77985;DHT22;67177;47.240;-1.546;2024-02-15T14:27:15;17.60;63.40
77985;DHT22;67177;47.240;-1.546;2024-02-15T14:29:40;17.70;63.40
77985;DHT22;67177;47.240;-1.546;2024-02-15T14:32:26;17.70;63.40
77985;DHT22;67177;47.240;-1.546;2024-02-15T14:35:10;17.80;63.30
77985;DHT22;67177;47.240;-1.546;2024-02-15T14:37:36;17.80;63.20
77985;DHT22;67177;47.240;-1.546;2024-02-15T14:40:02;17.80;63.10
77985;DHT22;67177;47.240;-1.546;2024-02-15T14:42:29;17.90;63.20
77985;DHT22;67177;47.240;-1.546;2024-02-15T14:44:54;17.90;63.00
77985;DHT22;67177;47.240;-1.546;2024-02-15T14:47:20;17.90;62.90
77985;DHT22;67177;47.240;-1.546;2024-02-15T14:49:47;18.00;63.00
77985;DHT22;67177;47.240;-1.546;2024-02-15T14:52:13;18.00;62.90
77985;DHT22;67177;47.240;-1.546;2024-02-15T14:54:40;17.90;63.00
77985;DHT22;67177;47.240;-1.546;2024-02-15T14:57:06;17.90;63.10
77985;DHT22;67177;47.240;-1.546;2024-02-15T14:59:32;17.80;63.20
77985;DHT22;67177;47.240;-1.546;2024-02-15T15:01:59;17.70;63.30
77985;DHT22;67177;47.240;-1.546;2024-02-15T15:04:36;17.60;63.40
77985;DHT22;67177;47.240;-1.546;2024-02-15T15:07:22;17.50;63.60
77985;DHT22;67177;47.240;-1.546;2024-02-15T15:10:06;17.40;63.70
77985;DHT22;67177;47.240;-1.546;2024-02-15T15:12:50;17.30;63.80
77985;DHT22;67177;47.240;-1.546;2024-02-15T15:15:16;17.30;63.90
77985;DHT22;67177;47.240;-1.546;2024-02-15T15:17:44;17.30;64.00
77985;DHT22;67177;47.240;-1.546;2024-02-15T15:20:12;17.30;64.10
77985;DHT22;67177;47.240;-1.546;2024-02-15T15:22:37;17.30;64.30
77985;DHT22;67177;47.240;-1.546;2024-02-15T15:25:04;17.30;64.20
77985;DHT22;67177;47.240;-1.546;2024-02-15T15:27:30;17.30;64.30
77985;DHT22;67177;47.240;-1.546;2024-02-15T15:29:56;17.30;64.40
77985;DHT22;67177;47.240;-1.546;2024-02-15T15:32:22;17.20;64.40
77985;DHT22;67177;47.240;-1.546;2024-02-15T15:34:48;17.20;64.50
77985;DHT22;67177;47.240;-1.546;2024-02-15T15:37:14;17.30;64.50